NCAR-RAP Real-Time Weather Data

Output produced by METARs form (12 May 2021  11:16 UTC)
found at http://weather.rap.ucar.edu/surface/
 
KDSM 121054Z 00000KT 10SM FEW220 FEW300 04/01 A3044 RMK AO2 SLP310 T00390006
KDSM 120954Z 00000KT 10SM CLR 05/M01 A3042 RMK AO2 SLP304 T00501011
KDSM 120854Z 00000KT 10SM CLR 06/M01 A3041 RMK AO2 SLP300 T00561006 53002
KDSM 120754Z 00000KT 10SM CLR 06/M01 A3041 RMK AO2 SLP298 T00561006
KDSM 120654Z 00000KT 10SM CLR 07/00 A3041 RMK AO2 SLP300 T00670000
KDSM 120554Z 00000KT 10SM FEW300 08/M01 A3041 RMK AO2 SLP299 T00781006 10144 20078 401610050 51009
KDSM 120454Z 08005KT 10SM SCT230 BKN300 10/M02 A3040 RMK AO2 SLP296 T01001017
KDSM 120354Z 08004KT 10SM SCT230 OVC300 11/M02 A3039 RMK AO2 SLP294 T01061017
KDSM 120254Z 08004KT 10SM BKN220 OVC300 12/M02 A3038 RMK AO2 SLP289 T01221022 53018
KDSM 120154Z 08003KT 10SM FEW070 BKN220 OVC300 13/M03 A3035 RMK AO2 SLP280 T01281028
KDSM 120054Z 08005KT 10SM SCT200 BKN300 14/M03 A3034 RMK AO2 SLP275 T01391033
KDSM 112354Z 13010KT 10SM FEW075 FEW240 BKN300 14/M03 A3032 RMK AO2 SLP270 T01441033 10161 20144 53005
KDSM 112254Z 05012G17KT 10SM FEW070 FEW250 16/M04 A3031 RMK AO2 SLP265 T01561039
KDSM 112154Z 06010G16KT 10SM FEW070 SCT250 16/M04 A3030 RMK AO2 SLP264 T01611039
KDSM 112054Z 09008G18KT 10SM FEW070 FEW210 SCT250 16/M04 A3031 RMK AO2 SLP265 T01561039 56003